createdAt,value
2022-11-21T00:00:30.128Z,0.75
2022-11-21T00:02:58.920Z,0.75
2022-11-21T00:05:26.779Z,1.02
2022-11-21T00:07:54.643Z,1.23
2022-11-21T00:10:22.565Z,1.10
2022-11-21T00:12:54.424Z,0.70
2022-11-21T00:15:23.667Z,0.98
2022-11-21T00:17:51.941Z,1.00
2022-11-21T00:20:20.832Z,0.88
2022-11-21T00:22:48.695Z,1.00
2022-11-21T00:25:17.127Z,1.13
2022-11-21T00:27:44.992Z,0.80
2022-11-21T00:30:13.267Z,0.75
2022-11-21T00:32:42.613Z,1.08
2022-11-21T00:35:10.685Z,0.85
2022-11-21T00:37:38.433Z,0.60
2022-11-21T00:40:06.826Z,0.85
2022-11-21T00:42:34.693Z,0.68
2022-11-21T00:45:02.508Z,0.90
2022-11-21T00:47:30.374Z,0.90
2022-11-21T00:49:59.672Z,1.05
2022-11-21T00:52:27.677Z,1.20
2022-11-21T00:54:55.654Z,1.08
2022-11-21T00:57:23.522Z,0.38
2022-11-21T00:59:51.497Z,0.38
2022-11-21T01:02:19.408Z,0.30
2022-11-21T01:04:47.320Z,0.40
2022-11-21T01:07:16.629Z,0.47
2022-11-21T01:09:44.691Z,0.60
2022-11-21T01:12:12.606Z,0.63
2022-11-21T01:14:40.409Z,0.75
2022-11-21T01:17:08.343Z,0.40
2022-11-21T01:19:36.203Z,0.50
2022-11-21T01:22:04.119Z,0.60
2022-11-21T01:24:33.469Z,0.50
2022-11-21T01:27:01.384Z,0.73
2022-11-21T01:29:29.402Z,0.60
2022-11-21T01:31:57.317Z,0.82
2022-11-21T01:34:25.470Z,0.38
2022-11-21T01:36:53.464Z,1.00
2022-11-21T01:39:21.378Z,0.50
2022-11-21T01:41:50.620Z,0.70
2022-11-21T01:44:20.800Z,0.80
2022-11-21T01:46:48.808Z,0.52
2022-11-21T01:49:18.722Z,0.93
2022-11-21T01:51:49.965Z,0.82
2022-11-21T01:54:19.981Z,0.90
2022-11-21T01:56:50.613Z,0.43
2022-11-21T01:59:22.880Z,0.82
2022-11-21T02:01:52.589Z,0.52
2022-11-21T02:04:21.070Z,0.30
2022-11-21T02:06:48.984Z,0.30
2022-11-21T02:09:17.054Z,0.73
2022-11-21T02:11:46.405Z,0.52
2022-11-21T02:14:14.218Z,0.50
2022-11-21T02:16:43.877Z,0.75
2022-11-21T02:19:14.245Z,0.55
2022-11-21T02:21:45.177Z,0.68
2022-11-21T02:24:16.833Z,0.55
2022-11-21T02:26:47.574Z,0.40
2022-11-21T02:29:15.540Z,0.60
2022-11-21T02:31:43.462Z,0.55
2022-11-21T02:34:11.271Z,0.77
2022-11-21T02:36:41.391Z,0.80
2022-11-21T02:39:10.805Z,0.40
2022-11-21T02:41:40.750Z,0.40
2022-11-21T02:44:13.331Z,0.57
2022-11-21T02:46:48.571Z,0.30
2022-11-21T02:49:17.916Z,0.60
2022-11-21T02:51:46.072Z,0.47
2022-11-21T02:54:13.856Z,0.77
2022-11-21T02:56:41.655Z,0.77
2022-11-21T02:59:10.916Z,0.70
2022-11-21T03:01:38.630Z,0.60
2022-11-21T03:04:06.752Z,0.88
2022-11-21T03:06:34.666Z,0.38
2022-11-21T03:09:02.624Z,1.13
2022-11-21T03:11:30.398Z,0.40
2022-11-21T03:13:58.310Z,0.77
2022-11-21T03:16:27.561Z,0.40
2022-11-21T03:18:55.482Z,0.68
2022-11-21T03:21:23.246Z,0.75
2022-11-21T03:23:51.103Z,0.68
2022-11-21T03:26:18.923Z,0.38
2022-11-21T03:28:46.721Z,0.47
2022-11-21T03:31:14.701Z,0.38
2022-11-21T03:33:43.841Z,0.30
2022-11-21T03:36:11.660Z,0.22
2022-11-21T03:38:40.867Z,0.40
2022-11-21T03:41:28.702Z,0.40
2022-11-21T03:43:56.612Z,0.30
2022-11-21T03:46:24.575Z,0.50
2022-11-21T03:48:53.863Z,0.65
2022-11-21T03:51:22.156Z,0.60
2022-11-21T03:53:50.326Z,0.50
2022-11-21T03:56:18.391Z,0.32
2022-11-21T03:58:46.508Z,0.57
2022-11-21T04:01:15.235Z,0.63
2022-11-21T04:03:43.467Z,0.35
2022-11-21T04:06:13.550Z,0.20
2022-11-21T04:08:41.231Z,0.30
2022-11-21T04:11:09.316Z,0.45
2022-11-21T04:13:37.238Z,0.30
2022-11-21T04:16:05.556Z,0.30
2022-11-21T04:18:34.745Z,0.40
2022-11-21T04:21:03.443Z,0.43
2022-11-21T04:23:33.044Z,0.55
2022-11-21T04:26:00.812Z,0.52
2022-11-21T04:28:28.737Z,0.40
2022-11-21T04:31:00.474Z,0.45
2022-11-21T04:33:28.498Z,0.30
2022-11-21T04:35:56.361Z,0.20
2022-11-21T04:38:24.268Z,0.50
2022-11-21T04:40:53.583Z,0.50
2022-11-21T04:43:21.392Z,0.40
2022-11-21T04:45:49.365Z,0.45
2022-11-21T04:48:17.382Z,0.45
2022-11-21T04:50:46.684Z,0.30
2022-11-21T04:53:14.596Z,0.10
2022-11-21T04:55:42.362Z,0.47
2022-11-21T04:58:11.504Z,0.25
2022-11-21T05:00:39.316Z,0.40
2022-11-21T05:03:08.005Z,0.30
2022-11-21T05:05:35.816Z,0.43
2022-11-21T05:08:03.784Z,0.20
2022-11-21T05:10:51.725Z,0.28
2022-11-21T05:13:23.014Z,0.40
2022-11-21T05:15:51.767Z,0.38
2022-11-21T05:18:20.485Z,0.20
2022-11-21T05:20:48.452Z,0.30
2022-11-21T05:23:16.297Z,0.20
2022-11-21T05:25:44.196Z,0.25
2022-11-21T05:28:11.945Z,0.30
2022-11-21T05:30:41.449Z,0.22
2022-11-21T05:33:09.314Z,0.30
2022-11-21T05:35:42.927Z,0.40
2022-11-21T05:38:11.495Z,0.38
2022-11-21T05:40:40.441Z,0.40
2022-11-21T05:43:25.458Z,0.32
2022-11-21T05:45:54.714Z,0.22
2022-11-21T05:48:22.413Z,0.30
2022-11-21T05:50:50.594Z,0.40
2022-11-21T05:53:18.915Z,0.35
2022-11-21T05:55:47.037Z,0.63
2022-11-21T05:58:14.800Z,0.50
2022-11-21T06:00:42.653Z,0.63
2022-11-21T06:03:30.945Z,1.10
2022-11-21T06:06:03.156Z,0.60
2022-11-21T06:08:31.961Z,0.80
2022-11-21T06:10:59.756Z,1.02
2022-11-21T06:13:27.996Z,0.65
2022-11-21T06:15:57.550Z,0.38
2022-11-21T06:18:26.949Z,0.73
2022-11-21T06:20:54.723Z,1.05
2022-11-21T06:23:22.476Z,1.08
2022-11-21T06:25:56.952Z,1.02
2022-11-21T06:28:24.863Z,1.35
2022-11-21T06:30:52.727Z,1.45
2022-11-21T06:33:20.851Z,1.10
2022-11-21T06:35:50.040Z,1.00
2022-11-21T06:38:18.790Z,0.98
2022-11-21T06:40:46.847Z,1.10
2022-11-21T06:43:14.780Z,1.05
2022-11-21T06:45:42.685Z,1.30
2022-11-21T06:48:10.550Z,0.82
2022-11-21T06:50:38.772Z,1.15
2022-11-21T06:53:08.252Z,2.00
2022-11-21T06:55:36.030Z,1.52
2022-11-21T06:58:03.906Z,0.50
2022-11-21T07:00:31.661Z,1.02
2022-11-21T07:03:03.246Z,1.45
2022-11-21T07:05:31.906Z,1.00
2022-11-21T07:08:00.489Z,0.75
2022-11-21T07:10:30.647Z,0.90
2022-11-21T07:13:16.139Z,0.90
2022-11-21T07:15:44.314Z,1.58
2022-11-21T07:18:12.174Z,1.85
2022-11-21T07:20:40.242Z,1.08
2022-11-21T07:23:08.567Z,0.98
2022-11-21T07:25:37.819Z,1.48
2022-11-21T07:28:05.679Z,1.08
2022-11-21T07:30:33.406Z,0.43
2022-11-21T07:33:02.186Z,1.40
2022-11-21T07:35:30.355Z,1.27
2022-11-21T07:37:58.119Z,1.05
2022-11-21T07:40:26.081Z,1.38
2022-11-21T07:42:55.282Z,1.17
2022-11-21T07:45:23.146Z,1.20
2022-11-21T07:47:57.915Z,0.90
2022-11-21T07:50:25.633Z,1.20
2022-11-21T07:52:53.349Z,0.20
2022-11-21T07:55:21.104Z,1.13
2022-11-21T07:57:48.854Z,0.55
2022-11-21T08:00:18.652Z,1.85
2022-11-21T08:02:46.530Z,1.40
2022-11-21T08:05:14.200Z,1.27
2022-11-21T08:07:42.050Z,1.00
2022-11-21T08:10:09.890Z,1.65
2022-11-21T08:12:37.665Z,0.73
2022-11-21T08:15:06.996Z,0.93
2022-11-21T08:17:36.297Z,1.05
2022-11-21T08:20:04.724Z,1.02
2022-11-21T08:22:32.602Z,0.60
2022-11-21T08:25:00.510Z,1.25
2022-11-21T08:27:29.276Z,1.17
2022-11-21T08:29:57.107Z,1.35
2022-11-21T08:32:24.977Z,0.70
2022-11-21T08:34:54.067Z,1.20
2022-11-21T08:37:21.796Z,0.82
2022-11-21T08:39:52.094Z,0.50
2022-11-21T08:42:19.884Z,0.50
2022-11-21T08:44:47.523Z,0.70
2022-11-21T08:47:15.480Z,1.35
2022-11-21T08:49:43.353Z,0.68
2022-11-21T08:52:12.484Z,1.13
2022-11-21T08:54:40.313Z,0.68
2022-11-21T08:57:08.182Z,1.13
2022-11-21T08:59:35.997Z,0.55
2022-11-21T09:02:03.804Z,1.08
2022-11-21T09:04:31.672Z,0.68
2022-11-21T09:06:59.773Z,0.50
2022-11-21T09:09:29.245Z,1.08
2022-11-21T09:11:57.162Z,1.38
2022-11-21T09:14:42.328Z,0.68
2022-11-21T09:17:30.626Z,1.33
2022-11-21T09:19:58.557Z,0.93
2022-11-21T09:22:26.704Z,0.90
2022-11-21T09:24:55.827Z,0.80
2022-11-21T09:27:23.622Z,0.90
2022-11-21T09:29:54.273Z,1.38
2022-11-21T09:32:22.579Z,1.27
2022-11-21T09:34:50.446Z,0.70
2022-11-21T09:37:18.258Z,0.73
2022-11-21T09:39:46.060Z,0.90
2022-11-21T09:42:26.945Z,0.45
2022-11-21T09:44:59.007Z,1.10
2022-11-21T09:47:28.440Z,0.52
2022-11-21T09:49:59.498Z,0.95
2022-11-21T09:52:29.353Z,0.85
2022-11-21T09:54:59.988Z,1.05
2022-11-21T09:57:34.647Z,0.40
2022-11-21T10:00:04.215Z,0.80
2022-11-21T10:02:40.892Z,0.63
2022-11-21T10:05:13.793Z,0.95
2022-11-21T10:07:41.692Z,0.60
2022-11-21T10:10:22.094Z,0.80
2022-11-21T10:12:56.213Z,0.70
2022-11-21T10:15:28.718Z,0.88
2022-11-21T10:18:15.799Z,0.73
2022-11-21T10:20:51.501Z,0.80
2022-11-21T10:23:38.821Z,0.98
2022-11-21T10:26:14.202Z,1.42
2022-11-21T10:28:46.995Z,0.93
2022-11-21T10:31:15.681Z,1.20
2022-11-21T10:33:43.647Z,0.77
2022-11-21T10:36:15.611Z,0.85
2022-11-21T10:38:44.497Z,1.05
2022-11-21T10:41:15.532Z,1.10
2022-11-21T10:44:05.050Z,0.90
2022-11-21T10:46:32.868Z,1.27
2022-11-21T10:49:01.740Z,1.38
2022-11-21T10:51:37.998Z,1.15
2022-11-21T10:54:24.618Z,0.80
2022-11-21T10:56:53.422Z,1.25
2022-11-21T10:59:29.863Z,1.27
2022-11-21T11:01:59.428Z,0.75
2022-11-21T11:04:29.114Z,0.75
2022-11-21T11:06:58.221Z,1.33
2022-11-21T11:09:28.527Z,0.90
2022-11-21T11:12:11.119Z,1.17
2022-11-21T11:14:40.202Z,0.50
2022-11-21T11:17:14.637Z,1.45
2022-11-21T11:20:00.479Z,1.10
2022-11-21T11:22:29.036Z,0.80
2022-11-21T11:25:00.384Z,0.77
2022-11-21T11:27:29.136Z,1.00
2022-11-21T11:29:58.316Z,0.80
2022-11-21T11:32:26.295Z,0.90
2022-11-21T11:34:59.374Z,0.82
2022-11-21T11:37:38.690Z,0.80
2022-11-21T11:40:16.262Z,0.80
2022-11-21T11:43:25.334Z,1.13
2022-11-21T11:46:18.166Z,0.70
2022-11-21T11:49:11.519Z,1.08
2022-11-21T11:51:38.292Z,0.80
2022-11-21T11:54:09.946Z,0.85
2022-11-21T11:56:38.577Z,0.75
2022-11-21T11:59:09.052Z,0.60
2022-11-21T12:01:40.154Z,0.70
2022-11-21T12:04:12.713Z,1.00
2022-11-21T12:07:41.120Z,1.25
2022-11-21T12:09:33.654Z,0.85
2022-11-21T12:12:06.886Z,0.80
2022-11-21T12:14:55.951Z,0.68
2022-11-21T12:17:28.562Z,0.82
2022-11-21T12:19:58.032Z,1.00
2022-11-21T12:22:25.829Z,0.80
2022-11-21T12:24:53.575Z,0.75
2022-11-21T12:27:32.580Z,0.63
2022-11-21T12:30:10.222Z,1.02
2022-11-21T12:32:51.185Z,0.80
2022-11-21T12:35:28.236Z,1.00
2022-11-21T12:38:00.701Z,1.15
2022-11-21T12:40:36.450Z,0.70
2022-11-21T12:43:10.045Z,0.93
2022-11-21T12:45:38.778Z,1.05
2022-11-21T12:48:30.318Z,1.20
2022-11-21T12:51:29.891Z,0.80
2022-11-21T12:54:17.211Z,1.13
2022-11-21T12:56:49.609Z,0.90
2022-11-21T12:59:17.623Z,0.93
2022-11-21T13:01:49.121Z,0.98
2022-11-21T13:04:20.051Z,0.80
2022-11-21T13:06:49.009Z,1.00
2022-11-21T13:09:18.302Z,1.00
2022-11-21T13:11:59.936Z,0.80
2022-11-21T13:14:32.716Z,1.10
2022-11-21T13:17:05.104Z,1.05
2022-11-21T13:19:37.522Z,0.90
2022-11-21T13:22:05.231Z,1.17
2022-11-21T13:24:51.453Z,0.80
2022-11-21T13:27:34.820Z,0.98
2022-11-21T13:30:19.194Z,0.95
2022-11-21T13:32:47.678Z,0.93
2022-11-21T13:35:30.340Z,1.13
2022-11-21T13:38:03.015Z,1.20
2022-11-21T13:40:37.810Z,1.10
2022-11-21T13:46:02.182Z,0.80
2022-11-21T13:48:40.200Z,1.00
2022-11-21T13:51:41.151Z,0.82
2022-11-21T13:54:38.802Z,0.90
2022-11-21T13:57:13.792Z,1.27
2022-11-21T13:59:48.616Z,1.05
2022-11-21T14:02:26.461Z,1.00
2022-11-21T14:05:12.858Z,1.00
2022-11-21T14:07:41.117Z,1.08
2022-11-21T14:10:20.939Z,1.27
2022-11-21T14:12:51.567Z,1.05
2022-11-21T14:15:23.988Z,1.05
2022-11-21T14:17:52.521Z,1.20
2022-11-21T14:20:21.967Z,0.98
2022-11-21T14:22:57.566Z,1.42
2022-11-21T14:25:27.275Z,1.23
2022-11-21T14:27:57.124Z,1.20
2022-11-21T14:30:32.549Z,1.17
2022-11-21T14:33:15.241Z,1.10
2022-11-21T14:35:43.257Z,1.02
2022-11-21T14:38:13.330Z,1.30
2022-11-21T14:40:41.039Z,0.98
2022-11-21T14:43:23.636Z,0.82
2022-11-21T14:45:52.924Z,1.10
2022-11-21T14:48:26.393Z,1.02
2022-11-21T14:50:54.451Z,1.00
2022-11-21T14:53:22.200Z,1.17
2022-11-21T14:55:56.906Z,1.27
2022-11-21T14:58:28.928Z,0.90
2022-11-21T15:01:04.735Z,1.10
2022-11-21T15:03:32.704Z,1.00
2022-11-21T15:06:05.762Z,0.90
2022-11-21T15:11:23.873Z,0.80
2022-11-21T15:16:42.864Z,0.88
2022-11-21T15:19:10.912Z,0.95
2022-11-21T15:21:38.935Z,0.93
2022-11-21T15:24:17.206Z,1.52
2022-11-21T15:26:45.226Z,1.15
2022-11-21T15:29:19.811Z,1.10
2022-11-21T15:32:06.197Z,1.02
2022-11-21T15:34:35.889Z,0.93
2022-11-21T15:37:05.711Z,1.13
2022-11-21T15:39:33.960Z,1.08
2022-11-21T15:42:20.284Z,1.35
2022-11-21T15:45:01.114Z,0.88
2022-11-21T15:47:30.496Z,0.90
2022-11-21T15:49:58.362Z,1.20
2022-11-21T15:52:26.272Z,0.93
2022-11-21T15:54:54.041Z,1.00
2022-11-21T15:57:22.552Z,1.17
2022-11-21T15:59:50.604Z,1.05
2022-11-21T16:02:18.359Z,0.98
2022-11-21T16:04:47.702Z,0.95
2022-11-21T16:07:15.541Z,1.00
2022-11-21T16:09:44.880Z,1.00
2022-11-21T16:12:12.665Z,0.93
2022-11-21T16:14:40.496Z,0.93
2022-11-21T16:17:08.260Z,0.80
2022-11-21T16:19:36.112Z,1.13
2022-11-21T16:22:05.290Z,0.98
2022-11-21T16:24:33.021Z,1.10
2022-11-21T16:27:02.413Z,1.10
2022-11-21T16:29:30.631Z,1.00
2022-11-21T16:31:58.715Z,1.00
2022-11-21T16:34:26.933Z,0.90
2022-11-21T16:36:55.674Z,1.20
2022-11-21T16:39:24.984Z,0.90
2022-11-21T16:41:52.900Z,0.90
2022-11-21T16:44:20.710Z,1.10
2022-11-21T16:46:49.200Z,1.27
2022-11-21T16:49:17.111Z,1.08
2022-11-21T16:51:46.215Z,0.90
2022-11-21T16:54:14.148Z,1.20
2022-11-21T16:56:43.470Z,1.00
2022-11-21T16:59:11.260Z,1.10
2022-11-21T17:01:39.156Z,0.95
2022-11-21T17:04:06.901Z,1.00
2022-11-21T17:06:34.716Z,1.00
2022-11-21T17:09:03.001Z,0.80
2022-11-21T17:11:32.077Z,1.05
2022-11-21T17:14:02.317Z,1.00
2022-11-21T17:16:30.436Z,1.05
2022-11-21T17:18:58.961Z,0.90
2022-11-21T17:21:27.344Z,0.80
2022-11-21T17:23:55.516Z,1.10
2022-11-21T17:26:24.098Z,1.02
2022-11-21T17:28:52.580Z,1.00
2022-11-21T17:31:22.133Z,0.98
2022-11-21T17:33:51.875Z,1.20
2022-11-21T17:36:20.670Z,1.17
2022-11-21T17:38:48.945Z,1.30
2022-11-21T17:41:17.728Z,1.45
2022-11-21T17:43:47.088Z,1.33
2022-11-21T17:46:16.866Z,1.80
2022-11-21T17:48:51.245Z,1.55
2022-11-21T17:51:23.482Z,1.77
2022-11-21T17:53:52.377Z,1.40
2022-11-21T17:56:21.083Z,1.48
2022-11-21T17:58:49.160Z,1.30
2022-11-21T18:01:20.117Z,1.63
2022-11-21T18:03:50.134Z,1.58
2022-11-21T18:06:18.101Z,1.48
2022-11-21T18:08:46.637Z,1.50
2022-11-21T18:11:15.325Z,1.85
2022-11-21T18:13:43.382Z,1.50
2022-11-21T18:16:12.576Z,1.40
2022-11-21T18:18:40.965Z,1.52
2022-11-21T18:21:10.818Z,1.50
2022-11-21T18:23:40.164Z,1.67
2022-11-21T18:26:08.961Z,1.65
2022-11-21T18:28:36.879Z,1.67
2022-11-21T18:31:05.764Z,1.50
2022-11-21T18:33:33.626Z,1.45
2022-11-21T18:36:01.653Z,1.52
2022-11-21T18:38:48.144Z,1.52
2022-11-21T18:41:19.132Z,1.55
2022-11-21T18:43:50.799Z,1.60
2022-11-21T18:46:18.760Z,1.60
2022-11-21T18:49:02.061Z,1.60
2022-11-21T18:51:32.006Z,1.73
2022-11-21T18:54:04.061Z,1.70
2022-11-21T18:56:31.979Z,1.60
2022-11-21T18:58:59.997Z,1.48
2022-11-21T19:01:29.142Z,1.80
2022-11-21T19:03:57.473Z,1.80
2022-11-21T19:06:26.722Z,1.33
2022-11-21T19:08:55.674Z,1.17
2022-11-21T19:11:25.731Z,1.40
2022-11-21T19:13:54.519Z,1.38
2022-11-21T19:16:24.381Z,1.42
2022-11-21T19:21:42.476Z,1.35
2022-11-21T19:24:13.071Z,1.50
2022-11-21T19:26:42.682Z,1.50
2022-11-21T19:29:10.849Z,1.63
2022-11-21T19:31:44.720Z,1.50
2022-11-21T19:34:14.182Z,1.48
2022-11-21T19:36:42.214Z,1.50
2022-11-21T19:39:10.183Z,1.58
2022-11-21T19:41:37.926Z,1.77
2022-11-21T19:44:08.319Z,1.30
2022-11-21T19:46:36.914Z,1.73
2022-11-21T19:49:05.775Z,1.38
2022-11-21T19:51:34.784Z,1.50
2022-11-21T19:54:03.005Z,1.45
2022-11-21T19:56:30.927Z,1.55
2022-11-21T19:58:59.306Z,1.70
2022-11-21T20:01:29.763Z,1.20
2022-11-21T20:03:59.079Z,1.02
2022-11-21T20:06:27.500Z,0.80
2022-11-21T20:08:56.089Z,1.20
2022-11-21T20:11:24.453Z,0.70
2022-11-21T20:13:52.571Z,1.00
2022-11-21T20:16:22.026Z,0.82
2022-11-21T20:18:51.490Z,1.10
2022-11-21T20:21:19.919Z,1.05
2022-11-21T20:23:47.884Z,0.82
2022-11-21T20:26:16.601Z,1.20
2022-11-21T20:28:45.149Z,0.63
2022-11-21T20:31:14.195Z,0.60
2022-11-21T20:33:42.922Z,0.82
2022-11-21T20:36:14.419Z,0.98
2022-11-21T20:38:42.610Z,0.85
2022-11-21T20:41:10.722Z,1.10
2022-11-21T20:44:20.074Z,0.80
2022-11-21T20:46:26.740Z,0.95
2022-11-21T20:48:56.314Z,1.00
2022-11-21T20:54:13.510Z,0.98
2022-11-21T20:56:44.091Z,1.00
2022-11-21T20:59:12.629Z,0.90
2022-11-21T21:01:40.579Z,0.77
2022-11-21T21:04:09.382Z,0.73
2022-11-21T21:06:39.566Z,1.13
2022-11-21T21:09:07.539Z,1.00
2022-11-21T21:11:52.614Z,0.82
2022-11-21T21:14:21.411Z,0.50
2022-11-21T21:16:49.472Z,0.95
2022-11-21T21:19:17.462Z,0.98
2022-11-21T21:21:46.707Z,0.80
2022-11-21T21:24:14.884Z,1.13
2022-11-21T21:26:43.709Z,0.57
2022-11-21T21:29:12.219Z,0.80
2022-11-21T21:31:43.832Z,0.32
2022-11-21T21:34:13.307Z,0.50
2022-11-21T21:36:41.226Z,1.02
2022-11-21T21:39:10.574Z,0.80
2022-11-21T21:41:40.205Z,0.70
2022-11-21T21:44:08.507Z,0.73
2022-11-21T21:46:36.317Z,0.88
2022-11-21T21:49:04.388Z,0.40
2022-11-21T21:51:32.345Z,0.82
2022-11-21T21:54:00.533Z,0.70
2022-11-21T21:56:30.188Z,0.68
2022-11-21T21:58:58.469Z,0.93
2022-11-21T22:01:27.065Z,0.68
2022-11-21T22:03:55.461Z,0.55
2022-11-21T22:06:23.536Z,0.40
2022-11-21T22:08:51.462Z,0.73
2022-11-21T22:11:20.001Z,0.50
2022-11-21T22:13:49.834Z,0.60
2022-11-21T22:16:17.666Z,1.00
2022-11-21T22:18:45.633Z,0.63
2022-11-21T22:21:14.213Z,0.50
2022-11-21T22:24:02.413Z,0.60
2022-11-21T22:26:30.173Z,0.68
2022-11-21T22:28:59.524Z,0.68
2022-11-21T22:31:27.458Z,0.52
2022-11-21T22:33:55.341Z,1.10
2022-11-21T22:36:23.153Z,0.80
2022-11-21T22:38:53.475Z,0.85
2022-11-21T22:41:22.583Z,0.50
2022-11-21T22:43:51.005Z,0.70
2022-11-21T22:46:20.611Z,0.60
2022-11-21T22:48:48.814Z,1.00
2022-11-21T22:51:18.448Z,0.60
2022-11-21T22:53:46.773Z,0.30
2022-11-21T22:56:16.515Z,0.90
2022-11-21T22:58:44.548Z,0.57
2022-11-21T23:01:13.438Z,0.60
2022-11-21T23:03:43.198Z,0.47
2022-11-21T23:06:11.882Z,0.60
2022-11-21T23:08:40.617Z,0.55
2022-11-21T23:11:09.303Z,0.95
2022-11-21T23:13:37.575Z,0.70
2022-11-21T23:16:06.272Z,0.52
2022-11-21T23:18:34.541Z,0.43
2022-11-21T23:21:04.550Z,1.05
2022-11-21T23:23:32.726Z,0.45
2022-11-21T23:26:00.588Z,0.70
2022-11-21T23:28:28.556Z,0.38
2022-11-21T23:30:56.417Z,0.80
2022-11-21T23:33:24.443Z,0.68
2022-11-21T23:35:52.406Z,0.82
2022-11-21T23:38:22.029Z,0.70
2022-11-21T23:40:50.449Z,0.70
2022-11-21T23:43:18.616Z,0.50
2022-11-21T23:45:50.666Z,0.77
2022-11-21T23:48:18.539Z,0.65
2022-11-21T23:50:46.719Z,0.75
2022-11-21T23:53:14.786Z,0.98
2022-11-21T23:55:44.281Z,0.57
2022-11-21T23:58:12.665Z,0.70
